sensor_id;sensor_type;location;lat;lon;timestamp;P1;durP1;ratioP1;P2;durP2;ratioP2
7116;SDS011;3600;48.568;7.870;2022-09-09T00:00:53;1.05;;;0.88;;
7116;SDS011;3600;48.568;7.870;2022-09-09T00:03:46;1.58;;;1.30;;
7116;SDS011;3600;48.568;7.870;2022-09-09T00:06:31;2.83;;;0.85;;
7116;SDS011;3600;48.568;7.870;2022-09-09T00:09:17;2.25;;;1.10;;
7116;SDS011;3600;48.568;7.870;2022-09-09T00:11:48;2.38;;;1.25;;
7116;SDS011;3600;48.568;7.870;2022-09-09T00:17:20;1.52;;;0.70;;
7116;SDS011;3600;48.568;7.870;2022-09-09T00:19:50;3.53;;;1.30;;
7116;SDS011;3600;48.568;7.870;2022-09-09T00:22:28;2.45;;;1.30;;
7116;SDS011;3600;48.568;7.870;2022-09-09T00:25:08;3.22;;;1.52;;
7116;SDS011;3600;48.568;7.870;2022-09-09T00:30:16;3.05;;;1.40;;
7116;SDS011;3600;48.568;7.870;2022-09-09T00:32:58;1.08;;;0.88;;
7116;SDS011;3600;48.568;7.870;2022-09-09T00:35:34;3.00;;;1.27;;
7116;SDS011;3600;48.568;7.870;2022-09-09T00:38:12;1.63;;;0.75;;
7116;SDS011;3600;48.568;7.870;2022-09-09T00:40:52;2.03;;;0.77;;
7116;SDS011;3600;48.568;7.870;2022-09-09T00:43:32;1.45;;;0.80;;
7116;SDS011;3600;48.568;7.870;2022-09-09T00:46:10;1.90;;;0.80;;
7116;SDS011;3600;48.568;7.870;2022-09-09T00:49:29;2.08;;;1.25;;
7116;SDS011;3600;48.568;7.870;2022-09-09T00:54:57;1.38;;;0.60;;
7116;SDS011;3600;48.568;7.870;2022-09-09T00:57:32;2.63;;;0.65;;
7116;SDS011;3600;48.568;7.870;2022-09-09T01:00:20;1.02;;;0.65;;
7116;SDS011;3600;48.568;7.870;2022-09-09T01:08:00;1.50;;;0.82;;
7116;SDS011;3600;48.568;7.870;2022-09-09T01:10:34;2.33;;;0.75;;
7116;SDS011;3600;48.568;7.870;2022-09-09T01:13:32;0.57;;;0.55;;
7116;SDS011;3600;48.568;7.870;2022-09-09T01:16:03;3.17;;;0.95;;
7116;SDS011;3600;48.568;7.870;2022-09-09T01:18:33;1.25;;;0.73;;
7116;SDS011;3600;48.568;7.870;2022-09-09T01:21:13;0.65;;;0.50;;
7116;SDS011;3600;48.568;7.870;2022-09-09T01:26:46;2.45;;;0.70;;
7116;SDS011;3600;48.568;7.870;2022-09-09T01:29:18;0.90;;;0.45;;
7116;SDS011;3600;48.568;7.870;2022-09-09T01:34:24;1.13;;;0.60;;
7116;SDS011;3600;48.568;7.870;2022-09-09T01:37:02;3.42;;;0.80;;
7116;SDS011;3600;48.568;7.870;2022-09-09T01:39:32;2.95;;;0.65;;
7116;SDS011;3600;48.568;7.870;2022-09-09T01:42:00;1.02;;;0.65;;
7116;SDS011;3600;48.568;7.870;2022-09-09T01:44:29;1.23;;;0.55;;
7116;SDS011;3600;48.568;7.870;2022-09-09T01:46:57;0.77;;;0.60;;
7116;SDS011;3600;48.568;7.870;2022-09-09T01:49:23;0.73;;;0.70;;
7116;SDS011;3600;48.568;7.870;2022-09-09T01:51:52;1.48;;;0.63;;
7116;SDS011;3600;48.568;7.870;2022-09-09T01:54:20;2.70;;;0.50;;
7116;SDS011;3600;48.568;7.870;2022-09-09T02:05:17;2.50;;;1.00;;
7116;SDS011;3600;48.568;7.870;2022-09-09T02:08:10;1.98;;;0.80;;
7116;SDS011;3600;48.568;7.870;2022-09-09T02:11:05;2.53;;;0.70;;
7116;SDS011;3600;48.568;7.870;2022-09-09T02:13:36;3.30;;;0.85;;
7116;SDS011;3600;48.568;7.870;2022-09-09T02:16:07;1.95;;;0.95;;
7116;SDS011;3600;48.568;7.870;2022-09-09T02:21:39;2.15;;;0.90;;
7116;SDS011;3600;48.568;7.870;2022-09-09T02:24:08;0.88;;;0.85;;
7116;SDS011;3600;48.568;7.870;2022-09-09T02:26:37;1.17;;;0.70;;
7116;SDS011;3600;48.568;7.870;2022-09-09T02:29:08;1.00;;;0.90;;
7116;SDS011;3600;48.568;7.870;2022-09-09T02:31:40;2.30;;;0.98;;
7116;SDS011;3600;48.568;7.870;2022-09-09T02:34:09;3.33;;;0.90;;
7116;SDS011;3600;48.568;7.870;2022-09-09T02:36:38;2.15;;;1.00;;
7116;SDS011;3600;48.568;7.870;2022-09-09T02:39:09;3.60;;;1.00;;
7116;SDS011;3600;48.568;7.870;2022-09-09T02:41:38;1.85;;;0.85;;
7116;SDS011;3600;48.568;7.870;2022-09-09T02:44:16;1.45;;;0.85;;
7116;SDS011;3600;48.568;7.870;2022-09-09T02:46:50;1.13;;;1.00;;
7116;SDS011;3600;48.568;7.870;2022-09-09T02:49:48;1.02;;;0.70;;
7116;SDS011;3600;48.568;7.870;2022-09-09T02:52:27;2.95;;;0.95;;
7116;SDS011;3600;48.568;7.870;2022-09-09T02:58:09;1.15;;;0.70;;
7116;SDS011;3600;48.568;7.870;2022-09-09T03:00:39;1.35;;;0.38;;
7116;SDS011;3600;48.568;7.870;2022-09-09T03:03:06;2.03;;;0.60;;
7116;SDS011;3600;48.568;7.870;2022-09-09T03:05:34;0.75;;;0.60;;
7116;SDS011;3600;48.568;7.870;2022-09-09T03:08:02;2.92;;;1.05;;
7116;SDS011;3600;48.568;7.870;2022-09-09T03:10:29;0.47;;;0.47;;
7116;SDS011;3600;48.568;7.870;2022-09-09T03:12:56;0.55;;;0.50;;
7116;SDS011;3600;48.568;7.870;2022-09-09T03:15:23;0.57;;;0.55;;
7116;SDS011;3600;48.568;7.870;2022-09-09T03:17:50;2.72;;;0.43;;
7116;SDS011;3600;48.568;7.870;2022-09-09T03:20:17;0.57;;;0.47;;
7116;SDS011;3600;48.568;7.870;2022-09-09T03:22:43;0.85;;;0.47;;
7116;SDS011;3600;48.568;7.870;2022-09-09T03:25:11;1.20;;;0.50;;
7116;SDS011;3600;48.568;7.870;2022-09-09T03:27:37;1.67;;;0.40;;
7116;SDS011;3600;48.568;7.870;2022-09-09T03:30:04;2.42;;;1.08;;
7116;SDS011;3600;48.568;7.870;2022-09-09T03:32:31;0.43;;;0.40;;
7116;SDS011;3600;48.568;7.870;2022-09-09T03:34:58;1.52;;;0.40;;
7116;SDS011;3600;48.568;7.870;2022-09-09T03:37:25;0.75;;;0.65;;
7116;SDS011;3600;48.568;7.870;2022-09-09T03:39:51;1.58;;;0.73;;
7116;SDS011;3600;48.568;7.870;2022-09-09T03:42:20;2.17;;;0.50;;
7116;SDS011;3600;48.568;7.870;2022-09-09T03:44:47;0.65;;;0.32;;
7116;SDS011;3600;48.568;7.870;2022-09-09T03:47:19;1.23;;;0.45;;
7116;SDS011;3600;48.568;7.870;2022-09-09T03:49:48;0.63;;;0.60;;
7116;SDS011;3600;48.568;7.870;2022-09-09T03:52:15;1.10;;;0.47;;
7116;SDS011;3600;48.568;7.870;2022-09-09T03:54:48;3.35;;;1.25;;
7116;SDS011;3600;48.568;7.870;2022-09-09T03:57:15;2.03;;;0.47;;
7116;SDS011;3600;48.568;7.870;2022-09-09T03:59:43;0.75;;;0.50;;
7116;SDS011;3600;48.568;7.870;2022-09-09T04:02:10;2.08;;;0.50;;
7116;SDS011;3600;48.568;7.870;2022-09-09T04:04:37;0.57;;;0.45;;
7116;SDS011;3600;48.568;7.870;2022-09-09T04:07:03;1.15;;;0.73;;
7116;SDS011;3600;48.568;7.870;2022-09-09T04:09:32;1.75;;;0.60;;
7116;SDS011;3600;48.568;7.870;2022-09-09T04:12:00;2.30;;;0.60;;
7116;SDS011;3600;48.568;7.870;2022-09-09T04:14:27;1.83;;;0.73;;
7116;SDS011;3600;48.568;7.870;2022-09-09T04:16:55;2.03;;;0.43;;
7116;SDS011;3600;48.568;7.870;2022-09-09T04:19:23;0.55;;;0.50;;
7116;SDS011;3600;48.568;7.870;2022-09-09T04:21:50;2.80;;;0.70;;
7116;SDS011;3600;48.568;7.870;2022-09-09T04:24:17;1.40;;;0.60;;
7116;SDS011;3600;48.568;7.870;2022-09-09T04:26:45;1.67;;;0.50;;
7116;SDS011;3600;48.568;7.870;2022-09-09T04:29:11;2.58;;;0.90;;
7116;SDS011;3600;48.568;7.870;2022-09-09T04:31:38;2.05;;;1.00;;
7116;SDS011;3600;48.568;7.870;2022-09-09T04:34:11;1.15;;;0.60;;
7116;SDS011;3600;48.568;7.870;2022-09-09T04:36:38;1.45;;;0.75;;
7116;SDS011;3600;48.568;7.870;2022-09-09T04:39:06;2.65;;;0.98;;
7116;SDS011;3600;48.568;7.870;2022-09-09T04:41:33;1.65;;;0.80;;
7116;SDS011;3600;48.568;7.870;2022-09-09T04:44:01;1.40;;;0.80;;
7116;SDS011;3600;48.568;7.870;2022-09-09T04:46:28;0.90;;;0.77;;
7116;SDS011;3600;48.568;7.870;2022-09-09T04:48:55;2.85;;;1.10;;
7116;SDS011;3600;48.568;7.870;2022-09-09T04:51:22;2.80;;;1.00;;
7116;SDS011;3600;48.568;7.870;2022-09-09T04:53:48;1.80;;;1.17;;
7116;SDS011;3600;48.568;7.870;2022-09-09T04:56:17;3.50;;;1.13;;
7116;SDS011;3600;48.568;7.870;2022-09-09T04:58:44;2.40;;;1.13;;
7116;SDS011;3600;48.568;7.870;2022-09-09T05:01:13;3.47;;;1.00;;
7116;SDS011;3600;48.568;7.870;2022-09-09T05:03:44;3.85;;;1.35;;
7116;SDS011;3600;48.568;7.870;2022-09-09T05:06:13;3.67;;;1.42;;
7116;SDS011;3600;48.568;7.870;2022-09-09T05:08:42;1.65;;;1.13;;
7116;SDS011;3600;48.568;7.870;2022-09-09T05:11:23;4.55;;;1.45;;
7116;SDS011;3600;48.568;7.870;2022-09-09T05:13:52;2.13;;;1.17;;
7116;SDS011;3600;48.568;7.870;2022-09-09T05:16:19;1.67;;;1.30;;
7116;SDS011;3600;48.568;7.870;2022-09-09T05:18:47;2.45;;;1.40;;
7116;SDS011;3600;48.568;7.870;2022-09-09T05:21:15;3.65;;;1.30;;
7116;SDS011;3600;48.568;7.870;2022-09-09T05:23:42;3.05;;;1.42;;
7116;SDS011;3600;48.568;7.870;2022-09-09T05:26:14;3.00;;;1.65;;
7116;SDS011;3600;48.568;7.870;2022-09-09T05:28:43;2.90;;;1.40;;
7116;SDS011;3600;48.568;7.870;2022-09-09T05:31:13;7.28;;;1.60;;
7116;SDS011;3600;48.568;7.870;2022-09-09T05:33:41;3.70;;;1.60;;
7116;SDS011;3600;48.568;7.870;2022-09-09T05:36:15;5.35;;;2.10;;
7116;SDS011;3600;48.568;7.870;2022-09-09T05:38:44;5.03;;;1.70;;
7116;SDS011;3600;48.568;7.870;2022-09-09T05:41:11;3.72;;;1.55;;
7116;SDS011;3600;48.568;7.870;2022-09-09T05:43:39;4.18;;;1.50;;
7116;SDS011;3600;48.568;7.870;2022-09-09T05:46:09;5.85;;;1.50;;
7116;SDS011;3600;48.568;7.870;2022-09-09T05:48:39;4.28;;;1.55;;
7116;SDS011;3600;48.568;7.870;2022-09-09T05:51:08;5.13;;;1.30;;
7116;SDS011;3600;48.568;7.870;2022-09-09T05:53:37;3.55;;;1.38;;
7116;SDS011;3600;48.568;7.870;2022-09-09T05:56:05;1.92;;;1.77;;
7116;SDS011;3600;48.568;7.870;2022-09-09T05:58:37;3.90;;;1.50;;
7116;SDS011;3600;48.568;7.870;2022-09-09T06:01:05;1.65;;;1.20;;
7116;SDS011;3600;48.568;7.870;2022-09-09T06:03:44;3.53;;;1.50;;
7116;SDS011;3600;48.568;7.870;2022-09-09T06:06:13;1.30;;;1.20;;
7116;SDS011;3600;48.568;7.870;2022-09-09T06:08:41;3.25;;;1.40;;
7116;SDS011;3600;48.568;7.870;2022-09-09T06:13:42;3.63;;;1.70;;
7116;SDS011;3600;48.568;7.870;2022-09-09T06:16:09;2.80;;;1.60;;
7116;SDS011;3600;48.568;7.870;2022-09-09T06:18:38;3.85;;;1.50;;
7116;SDS011;3600;48.568;7.870;2022-09-09T06:21:08;3.25;;;1.50;;
7116;SDS011;3600;48.568;7.870;2022-09-09T06:23:39;2.60;;;1.30;;
7116;SDS011;3600;48.568;7.870;2022-09-09T06:28:38;3.15;;;1.45;;
7116;SDS011;3600;48.568;7.870;2022-09-09T06:31:06;2.33;;;1.33;;
7116;SDS011;3600;48.568;7.870;2022-09-09T06:33:37;1.77;;;1.58;;
7116;SDS011;3600;48.568;7.870;2022-09-09T06:36:11;2.95;;;1.52;;
7116;SDS011;3600;48.568;7.870;2022-09-09T06:38:40;3.38;;;1.70;;
7116;SDS011;3600;48.568;7.870;2022-09-09T06:41:08;3.33;;;1.60;;
7116;SDS011;3600;48.568;7.870;2022-09-09T06:43:36;2.35;;;1.33;;
7116;SDS011;3600;48.568;7.870;2022-09-09T06:46:06;2.50;;;1.50;;
7116;SDS011;3600;48.568;7.870;2022-09-09T06:48:40;3.05;;;1.33;;
7116;SDS011;3600;48.568;7.870;2022-09-09T06:51:12;5.55;;;1.52;;
7116;SDS011;3600;48.568;7.870;2022-09-09T06:53:44;1.90;;;1.45;;
7116;SDS011;3600;48.568;7.870;2022-09-09T06:58:49;1.63;;;1.40;;
7116;SDS011;3600;48.568;7.870;2022-09-09T07:01:19;1.38;;;1.27;;
7116;SDS011;3600;48.568;7.870;2022-09-09T07:03:48;1.67;;;1.50;;
7116;SDS011;3600;48.568;7.870;2022-09-09T07:06:38;3.75;;;1.95;;
7116;SDS011;3600;48.568;7.870;2022-09-09T07:09:06;3.38;;;1.77;;
7116;SDS011;3600;48.568;7.870;2022-09-09T07:11:38;2.92;;;1.58;;
7116;SDS011;3600;48.568;7.870;2022-09-09T07:14:08;4.28;;;1.40;;
7116;SDS011;3600;48.568;7.870;2022-09-09T07:16:35;3.58;;;1.65;;
7116;SDS011;3600;48.568;7.870;2022-09-09T07:19:03;5.18;;;1.45;;
7116;SDS011;3600;48.568;7.870;2022-09-09T07:21:30;4.97;;;2.00;;
7116;SDS011;3600;48.568;7.870;2022-09-09T07:23:58;1.60;;;1.48;;
7116;SDS011;3600;48.568;7.870;2022-09-09T07:26:27;3.53;;;1.60;;
7116;SDS011;3600;48.568;7.870;2022-09-09T07:28:55;2.83;;;1.35;;
7116;SDS011;3600;48.568;7.870;2022-09-09T07:31:33;1.65;;;1.50;;
7116;SDS011;3600;48.568;7.870;2022-09-09T07:34:03;1.42;;;1.33;;
7116;SDS011;3600;48.568;7.870;2022-09-09T07:36:32;3.28;;;1.48;;
7116;SDS011;3600;48.568;7.870;2022-09-09T07:39:01;2.65;;;1.33;;
7116;SDS011;3600;48.568;7.870;2022-09-09T07:41:33;2.40;;;1.60;;
7116;SDS011;3600;48.568;7.870;2022-09-09T07:44:09;3.92;;;1.70;;
7116;SDS011;3600;48.568;7.870;2022-09-09T07:46:37;3.03;;;1.60;;
7116;SDS011;3600;48.568;7.870;2022-09-09T07:49:08;1.88;;;1.20;;
7116;SDS011;3600;48.568;7.870;2022-09-09T07:51:37;3.13;;;1.38;;
7116;SDS011;3600;48.568;7.870;2022-09-09T07:54:07;3.70;;;1.00;;
7116;SDS011;3600;48.568;7.870;2022-09-09T07:56:35;2.60;;;1.20;;
7116;SDS011;3600;48.568;7.870;2022-09-09T07:59:05;4.40;;;1.20;;
7116;SDS011;3600;48.568;7.870;2022-09-09T08:01:34;3.13;;;1.35;;
7116;SDS011;3600;48.568;7.870;2022-09-09T08:04:09;1.50;;;1.10;;
7116;SDS011;3600;48.568;7.870;2022-09-09T08:06:42;4.03;;;1.58;;
7116;SDS011;3600;48.568;7.870;2022-09-09T08:09:10;2.13;;;1.40;;
7116;SDS011;3600;48.568;7.870;2022-09-09T08:11:38;2.90;;;1.10;;
7116;SDS011;3600;48.568;7.870;2022-09-09T08:14:06;1.55;;;1.08;;
7116;SDS011;3600;48.568;7.870;2022-09-09T08:16:35;2.83;;;1.13;;
7116;SDS011;3600;48.568;7.870;2022-09-09T08:19:03;4.25;;;1.45;;
7116;SDS011;3600;48.568;7.870;2022-09-09T08:21:33;3.80;;;1.30;;
7116;SDS011;3600;48.568;7.870;2022-09-09T08:24:02;2.65;;;1.20;;
7116;SDS011;3600;48.568;7.870;2022-09-09T08:26:32;2.72;;;1.10;;
7116;SDS011;3600;48.568;7.870;2022-09-09T08:29:00;3.25;;;0.98;;
7116;SDS011;3600;48.568;7.870;2022-09-09T08:31:32;1.95;;;0.95;;
7116;SDS011;3600;48.568;7.870;2022-09-09T08:34:04;1.65;;;1.20;;
7116;SDS011;3600;48.568;7.870;2022-09-09T08:36:33;3.13;;;1.05;;
7116;SDS011;3600;48.568;7.870;2022-09-09T08:39:03;2.13;;;1.08;;
7116;SDS011;3600;48.568;7.870;2022-09-09T08:49:59;5.72;;;1.42;;
7116;SDS011;3600;48.568;7.870;2022-09-09T08:52:30;1.77;;;0.90;;
7116;SDS011;3600;48.568;7.870;2022-09-09T08:55:24;3.13;;;1.77;;
7116;SDS011;3600;48.568;7.870;2022-09-09T08:57:55;4.47;;;1.08;;
7116;SDS011;3600;48.568;7.870;2022-09-09T09:00:25;2.35;;;1.10;;
7116;SDS011;3600;48.568;7.870;2022-09-09T09:08:35;2.85;;;1.05;;
7116;SDS011;3600;48.568;7.870;2022-09-09T09:11:22;4.38;;;1.30;;
7116;SDS011;3600;48.568;7.870;2022-09-09T09:16:52;1.77;;;1.30;;
7116;SDS011;3600;48.568;7.870;2022-09-09T09:19:22;3.13;;;1.23;;
7116;SDS011;3600;48.568;7.870;2022-09-09T09:27:36;4.38;;;1.70;;
7116;SDS011;3600;48.568;7.870;2022-09-09T09:30:14;3.05;;;1.00;;
7116;SDS011;3600;48.568;7.870;2022-09-09T09:33:02;2.80;;;1.48;;
7116;SDS011;3600;48.568;7.870;2022-09-09T09:35:48;2.15;;;1.67;;
7116;SDS011;3600;48.568;7.870;2022-09-09T09:38:17;3.30;;;1.17;;
7116;SDS011;3600;48.568;7.870;2022-09-09T09:41:04;2.25;;;0.90;;
7116;SDS011;3600;48.568;7.870;2022-09-09T09:43:31;4.65;;;1.40;;
7116;SDS011;3600;48.568;7.870;2022-09-09T09:46:03;3.92;;;1.33;;
7116;SDS011;3600;48.568;7.870;2022-09-09T09:48:43;6.53;;;1.73;;
7116;SDS011;3600;48.568;7.870;2022-09-09T09:51:12;3.35;;;0.93;;
7116;SDS011;3600;48.568;7.870;2022-09-09T09:53:42;4.78;;;1.33;;
7116;SDS011;3600;48.568;7.870;2022-09-09T09:56:10;3.28;;;1.30;;
7116;SDS011;3600;48.568;7.870;2022-09-09T10:01:22;3.00;;;1.35;;
7116;SDS011;3600;48.568;7.870;2022-09-09T10:03:52;4.05;;;1.10;;
7116;SDS011;3600;48.568;7.870;2022-09-09T10:06:32;2.47;;;1.13;;
7116;SDS011;3600;48.568;7.870;2022-09-09T10:09:01;3.40;;;1.15;;
7116;SDS011;3600;48.568;7.870;2022-09-09T10:11:34;2.90;;;1.30;;
7116;SDS011;3600;48.568;7.870;2022-09-09T10:14:23;3.08;;;1.42;;
7116;SDS011;3600;48.568;7.870;2022-09-09T10:23:07;2.88;;;0.98;;
7116;SDS011;3600;48.568;7.870;2022-09-09T10:26:16;3.42;;;0.98;;
7116;SDS011;3600;48.568;7.870;2022-09-09T10:28:55;4.32;;;1.17;;
7116;SDS011;3600;48.568;7.870;2022-09-09T10:31:49;1.90;;;0.80;;
7116;SDS011;3600;48.568;7.870;2022-09-09T10:40:22;5.05;;;2.50;;
7116;SDS011;3600;48.568;7.870;2022-09-09T10:43:03;5.30;;;1.60;;
7116;SDS011;3600;48.568;7.870;2022-09-09T10:54:00;1.58;;;0.90;;
7116;SDS011;3600;48.568;7.870;2022-09-09T10:56:49;3.42;;;0.90;;
7116;SDS011;3600;48.568;7.870;2022-09-09T10:59:24;3.92;;;1.05;;
7116;SDS011;3600;48.568;7.870;2022-09-09T11:04:50;3.83;;;0.77;;
7116;SDS011;3600;48.568;7.870;2022-09-09T11:07:40;3.00;;;0.90;;
7116;SDS011;3600;48.568;7.870;2022-09-09T11:10:19;5.45;;;1.02;;
7116;SDS011;3600;48.568;7.870;2022-09-09T11:12:52;1.13;;;0.47;;
7116;SDS011;3600;48.568;7.870;2022-09-09T11:15:35;1.58;;;0.63;;
7116;SDS011;3600;48.568;7.870;2022-09-09T11:18:08;3.95;;;0.80;;
7116;SDS011;3600;48.568;7.870;2022-09-09T11:20:39;1.88;;;0.52;;
7116;SDS011;3600;48.568;7.870;2022-09-09T11:23:15;3.65;;;0.80;;
7116;SDS011;3600;48.568;7.870;2022-09-09T11:25:54;2.28;;;0.90;;
7116;SDS011;3600;48.568;7.870;2022-09-09T11:34:09;5.57;;;0.80;;
7116;SDS011;3600;48.568;7.870;2022-09-09T11:44:39;2.28;;;0.68;;
7116;SDS011;3600;48.568;7.870;2022-09-09T11:47:19;1.25;;;0.40;;
7116;SDS011;3600;48.568;7.870;2022-09-09T11:53:04;1.15;;;0.70;;
7116;SDS011;3600;48.568;7.870;2022-09-09T11:55:40;1.65;;;0.88;;
7116;SDS011;3600;48.568;7.870;2022-09-09T12:00:38;2.85;;;0.88;;
7116;SDS011;3600;48.568;7.870;2022-09-09T12:03:31;1.73;;;0.55;;
7116;SDS011;3600;48.568;7.870;2022-09-09T12:06:14;2.25;;;1.00;;
7116;SDS011;3600;48.568;7.870;2022-09-09T12:08:43;1.33;;;0.70;;
7116;SDS011;3600;48.568;7.870;2022-09-09T12:11:12;1.95;;;0.85;;
7116;SDS011;3600;48.568;7.870;2022-09-09T12:14:19;1.63;;;0.75;;
7116;SDS011;3600;48.568;7.870;2022-09-09T12:16:48;1.15;;;0.80;;
7116;SDS011;3600;48.568;7.870;2022-09-09T12:19:20;1.67;;;0.63;;
7116;SDS011;3600;48.568;7.870;2022-09-09T12:22:00;3.58;;;1.00;;
7116;SDS011;3600;48.568;7.870;2022-09-09T12:24:43;4.30;;;1.15;;
7116;SDS011;3600;48.568;7.870;2022-09-09T12:27:17;1.75;;;0.60;;
7116;SDS011;3600;48.568;7.870;2022-09-09T12:29:56;0.85;;;0.50;;
7116;SDS011;3600;48.568;7.870;2022-09-09T12:33:06;1.75;;;0.60;;
7116;SDS011;3600;48.568;7.870;2022-09-09T12:35:37;3.05;;;0.90;;
7116;SDS011;3600;48.568;7.870;2022-09-09T12:38:04;2.67;;;0.60;;
7116;SDS011;3600;48.568;7.870;2022-09-09T12:40:37;0.80;;;0.70;;
7116;SDS011;3600;48.568;7.870;2022-09-09T12:43:18;1.58;;;0.60;;
7116;SDS011;3600;48.568;7.870;2022-09-09T12:45:47;0.82;;;0.45;;
7116;SDS011;3600;48.568;7.870;2022-09-09T12:48:24;1.35;;;0.80;;
7116;SDS011;3600;48.568;7.870;2022-09-09T12:51:03;1.08;;;0.40;;
7116;SDS011;3600;48.568;7.870;2022-09-09T12:53:44;2.25;;;0.50;;
7116;SDS011;3600;48.568;7.870;2022-09-09T12:56:22;1.65;;;0.90;;
7116;SDS011;3600;48.568;7.870;2022-09-09T12:58:55;2.08;;;0.57;;
7116;SDS011;3600;48.568;7.870;2022-09-09T13:01:25;1.48;;;0.45;;
7116;SDS011;3600;48.568;7.870;2022-09-09T13:03:57;1.00;;;0.32;;
7116;SDS011;3600;48.568;7.870;2022-09-09T13:06:28;0.80;;;0.40;;
7116;SDS011;3600;48.568;7.870;2022-09-09T13:08:57;2.55;;;0.22;;
7116;SDS011;3600;48.568;7.870;2022-09-09T13:11:28;0.60;;;0.43;;
7116;SDS011;3600;48.568;7.870;2022-09-09T13:13:56;0.40;;;0.38;;
7116;SDS011;3600;48.568;7.870;2022-09-09T13:16:28;2.03;;;1.38;;
7116;SDS011;3600;48.568;7.870;2022-09-09T13:19:09;1.02;;;0.57;;
7116;SDS011;3600;48.568;7.870;2022-09-09T13:21:41;3.28;;;0.50;;
7116;SDS011;3600;48.568;7.870;2022-09-09T13:26:59;2.28;;;0.55;;
7116;SDS011;3600;48.568;7.870;2022-09-09T13:29:28;1.55;;;0.47;;
7116;SDS011;3600;48.568;7.870;2022-09-09T13:32:06;1.20;;;0.55;;
7116;SDS011;3600;48.568;7.870;2022-09-09T13:34:50;2.35;;;0.60;;
7116;SDS011;3600;48.568;7.870;2022-09-09T13:37:34;2.03;;;0.35;;
7116;SDS011;3600;48.568;7.870;2022-09-09T13:40:03;1.63;;;0.70;;
7116;SDS011;3600;48.568;7.870;2022-09-09T13:42:33;1.25;;;0.50;;
7116;SDS011;3600;48.568;7.870;2022-09-09T13:45:03;0.88;;;0.60;;
7116;SDS011;3600;48.568;7.870;2022-09-09T13:47:34;0.70;;;0.60;;
7116;SDS011;3600;48.568;7.870;2022-09-09T13:52:53;2.22;;;0.82;;
7116;SDS011;3600;48.568;7.870;2022-09-09T13:55:22;2.70;;;0.65;;
7116;SDS011;3600;48.568;7.870;2022-09-09T13:57:57;2.92;;;0.57;;
7116;SDS011;3600;48.568;7.870;2022-09-09T14:00:31;0.90;;;0.55;;
7116;SDS011;3600;48.568;7.870;2022-09-09T14:03:00;4.38;;;0.70;;
7116;SDS011;3600;48.568;7.870;2022-09-09T14:05:30;1.05;;;0.55;;
7116;SDS011;3600;48.568;7.870;2022-09-09T14:07:58;3.50;;;0.60;;
7116;SDS011;3600;48.568;7.870;2022-09-09T14:10:26;1.35;;;0.65;;
7116;SDS011;3600;48.568;7.870;2022-09-09T14:12:53;1.95;;;0.57;;
7116;SDS011;3600;48.568;7.870;2022-09-09T14:15:20;0.75;;;0.55;;
7116;SDS011;3600;48.568;7.870;2022-09-09T14:17:47;0.90;;;0.52;;
7116;SDS011;3600;48.568;7.870;2022-09-09T14:20:14;1.70;;;0.50;;
7116;SDS011;3600;48.568;7.870;2022-09-09T14:22:43;2.17;;;0.40;;
7116;SDS011;3600;48.568;7.870;2022-09-09T14:25:10;1.58;;;0.70;;
7116;SDS011;3600;48.568;7.870;2022-09-09T14:27:39;1.40;;;0.52;;
7116;SDS011;3600;48.568;7.870;2022-09-09T14:30:06;1.65;;;0.85;;
7116;SDS011;3600;48.568;7.870;2022-09-09T14:32:33;2.55;;;0.60;;
7116;SDS011;3600;48.568;7.870;2022-09-09T14:35:00;2.17;;;0.88;;
7116;SDS011;3600;48.568;7.870;2022-09-09T14:37:27;1.98;;;0.57;;
7116;SDS011;3600;48.568;7.870;2022-09-09T14:39:54;2.17;;;0.80;;
7116;SDS011;3600;48.568;7.870;2022-09-09T14:42:22;3.22;;;1.25;;
7116;SDS011;3600;48.568;7.870;2022-09-09T14:44:49;4.88;;;1.40;;
7116;SDS011;3600;48.568;7.870;2022-09-09T14:47:16;0.80;;;0.80;;
7116;SDS011;3600;48.568;7.870;2022-09-09T14:49:42;2.05;;;0.82;;
7116;SDS011;3600;48.568;7.870;2022-09-09T14:52:12;2.85;;;1.60;;
7116;SDS011;3600;48.568;7.870;2022-09-09T14:54:39;4.43;;;1.30;;
7116;SDS011;3600;48.568;7.870;2022-09-09T14:57:06;1.00;;;0.90;;
7116;SDS011;3600;48.568;7.870;2022-09-09T14:59:32;2.28;;;0.90;;
7116;SDS011;3600;48.568;7.870;2022-09-09T15:02:00;1.45;;;0.60;;
7116;SDS011;3600;48.568;7.870;2022-09-09T15:04:30;2.92;;;1.25;;
7116;SDS011;3600;48.568;7.870;2022-09-09T15:06:57;2.70;;;1.50;;
7116;SDS011;3600;48.568;7.870;2022-09-09T15:09:24;2.00;;;0.93;;
7116;SDS011;3600;48.568;7.870;2022-09-09T15:11:51;1.38;;;0.85;;
7116;SDS011;3600;48.568;7.870;2022-09-09T15:14:18;1.48;;;0.80;;
7116;SDS011;3600;48.568;7.870;2022-09-09T15:16:50;3.83;;;0.63;;
7116;SDS011;3600;48.568;7.870;2022-09-09T15:19:17;1.73;;;0.52;;
7116;SDS011;3600;48.568;7.870;2022-09-09T15:21:43;0.73;;;0.60;;
7116;SDS011;3600;48.568;7.870;2022-09-09T15:24:10;3.55;;;1.10;;
7116;SDS011;3600;48.568;7.870;2022-09-09T15:26:37;1.67;;;0.85;;
7116;SDS011;3600;48.568;7.870;2022-09-09T15:29:07;3.15;;;0.90;;
7116;SDS011;3600;48.568;7.870;2022-09-09T15:31:34;2.10;;;0.65;;
7116;SDS011;3600;48.568;7.870;2022-09-09T15:34:02;1.85;;;1.13;;
7116;SDS011;3600;48.568;7.870;2022-09-09T15:36:32;5.07;;;0.93;;
7116;SDS011;3600;48.568;7.870;2022-09-09T15:39:00;1.90;;;0.68;;
7116;SDS011;3600;48.568;7.870;2022-09-09T15:41:29;1.33;;;0.85;;
7116;SDS011;3600;48.568;7.870;2022-09-09T15:43:57;1.55;;;1.20;;
7116;SDS011;3600;48.568;7.870;2022-09-09T15:46:34;0.98;;;0.75;;
7116;SDS011;3600;48.568;7.870;2022-09-09T15:49:07;3.00;;;0.82;;
7116;SDS011;3600;48.568;7.870;2022-09-09T15:51:52;3.80;;;0.68;;
7116;SDS011;3600;48.568;7.870;2022-09-09T15:54:22;1.85;;;0.82;;
7116;SDS011;3600;48.568;7.870;2022-09-09T15:56:51;3.75;;;0.80;;
7116;SDS011;3600;48.568;7.870;2022-09-09T15:59:23;3.25;;;1.50;;
7116;SDS011;3600;48.568;7.870;2022-09-09T16:01:51;1.83;;;0.80;;
7116;SDS011;3600;48.568;7.870;2022-09-09T16:04:18;5.20;;;1.60;;
7116;SDS011;3600;48.568;7.870;2022-09-09T16:06:56;2.25;;;0.80;;
7116;SDS011;3600;48.568;7.870;2022-09-09T16:09:25;1.65;;;0.80;;
7116;SDS011;3600;48.568;7.870;2022-09-09T16:11:53;1.60;;;0.90;;
7116;SDS011;3600;48.568;7.870;2022-09-09T16:14:22;1.25;;;0.85;;
7116;SDS011;3600;48.568;7.870;2022-09-09T16:16:49;2.20;;;0.80;;
7116;SDS011;3600;48.568;7.870;2022-09-09T16:19:15;3.90;;;2.30;;
7116;SDS011;3600;48.568;7.870;2022-09-09T16:21:43;4.57;;;2.40;;
7116;SDS011;3600;48.568;7.870;2022-09-09T16:24:15;2.17;;;0.70;;
7116;SDS011;3600;48.568;7.870;2022-09-09T16:26:45;1.70;;;0.88;;
7116;SDS011;3600;48.568;7.870;2022-09-09T16:29:13;2.22;;;0.90;;
7116;SDS011;3600;48.568;7.870;2022-09-09T16:31:41;2.00;;;1.00;;
7116;SDS011;3600;48.568;7.870;2022-09-09T16:34:08;1.85;;;0.93;;
7116;SDS011;3600;48.568;7.870;2022-09-09T16:36:36;2.38;;;0.90;;
7116;SDS011;3600;48.568;7.870;2022-09-09T16:39:08;1.98;;;1.00;;
7116;SDS011;3600;48.568;7.870;2022-09-09T16:41:37;1.33;;;0.75;;
7116;SDS011;3600;48.568;7.870;2022-09-09T16:44:06;1.95;;;1.13;;
7116;SDS011;3600;48.568;7.870;2022-09-09T16:46:35;3.45;;;0.85;;
7116;SDS011;3600;48.568;7.870;2022-09-09T16:49:04;2.13;;;0.70;;
7116;SDS011;3600;48.568;7.870;2022-09-09T16:51:34;2.78;;;0.85;;
7116;SDS011;3600;48.568;7.870;2022-09-09T16:54:04;0.95;;;0.75;;
7116;SDS011;3600;48.568;7.870;2022-09-09T16:56:34;1.55;;;0.65;;
7116;SDS011;3600;48.568;7.870;2022-09-09T16:59:10;1.45;;;0.80;;
7116;SDS011;3600;48.568;7.870;2022-09-09T17:01:39;2.65;;;1.02;;
7116;SDS011;3600;48.568;7.870;2022-09-09T17:04:08;2.75;;;0.50;;
7116;SDS011;3600;48.568;7.870;2022-09-09T17:06:37;1.45;;;0.70;;
7116;SDS011;3600;48.568;7.870;2022-09-09T17:09:08;0.65;;;0.60;;
7116;SDS011;3600;48.568;7.870;2022-09-09T17:11:37;3.00;;;0.60;;
7116;SDS011;3600;48.568;7.870;2022-09-09T17:14:05;1.58;;;0.60;;
7116;SDS011;3600;48.568;7.870;2022-09-09T17:16:33;1.65;;;0.80;;
7116;SDS011;3600;48.568;7.870;2022-09-09T17:19:00;3.58;;;0.88;;
7116;SDS011;3600;48.568;7.870;2022-09-09T17:21:29;0.73;;;0.43;;
7116;SDS011;3600;48.568;7.870;2022-09-09T17:23:56;1.95;;;0.63;;
7116;SDS011;3600;48.568;7.870;2022-09-09T17:26:25;0.77;;;0.77;;
7116;SDS011;3600;48.568;7.870;2022-09-09T17:28:54;2.28;;;0.60;;
7116;SDS011;3600;48.568;7.870;2022-09-09T17:31:25;2.38;;;0.57;;
7116;SDS011;3600;48.568;7.870;2022-09-09T17:33:53;1.77;;;0.70;;
7116;SDS011;3600;48.568;7.870;2022-09-09T17:36:22;1.58;;;0.43;;
7116;SDS011;3600;48.568;7.870;2022-09-09T17:38:51;1.55;;;0.80;;